createdAt,value
2023-02-23T00:00:16.452Z,1002.19
2023-02-23T00:03:16.479Z,1002.15
2023-02-23T00:06:16.424Z,1002.15
2023-02-23T00:09:16.434Z,1002.2
2023-02-23T00:12:16.422Z,1002.19
2023-02-23T00:15:16.426Z,1002.17
2023-02-23T00:18:16.420Z,1002.15
2023-02-23T00:21:16.758Z,1002.15
2023-02-23T00:24:16.424Z,1002.17
2023-02-23T00:27:16.428Z,1002.16
2023-02-23T00:30:16.419Z,1002.17
2023-02-23T00:33:16.423Z,1002.19
2023-02-23T00:36:16.436Z,1002.18
2023-02-23T00:39:16.418Z,1002.19
2023-02-23T00:42:16.426Z,1002.18
2023-02-23T00:45:16.419Z,1002.19
2023-02-23T00:48:16.421Z,1002.16
2023-02-23T00:51:16.774Z,1002.16
2023-02-23T00:54:16.444Z,1002.2
2023-02-23T00:57:16.417Z,1002.16
2023-02-23T01:00:16.418Z,1002.19
2023-02-23T01:03:16.414Z,1002.21
2023-02-23T01:06:16.413Z,1002.27
2023-02-23T01:09:16.418Z,1002.22
2023-02-23T01:12:16.411Z,1002.21
2023-02-23T01:15:16.404Z,1002.22
2023-02-23T01:18:16.407Z,1002.21
2023-02-23T01:21:16.706Z,1002.17
2023-02-23T01:24:16.400Z,1002.18
2023-02-23T01:27:16.413Z,1002.14
2023-02-23T01:30:16.418Z,1002.13
2023-02-23T01:33:16.393Z,1002.1
2023-02-23T01:36:16.397Z,1002.13
2023-02-23T01:39:16.426Z,1002.15
2023-02-23T01:42:16.403Z,1002.15
2023-02-23T01:45:16.407Z,1002.15
2023-02-23T01:48:16.396Z,1002.12
2023-02-23T01:51:16.642Z,1002.12
2023-02-23T01:54:16.417Z,1002.14
2023-02-23T01:57:16.383Z,1002.09
2023-02-23T02:00:16.385Z,1002.11
2023-02-23T02:03:16.386Z,1002.13
2023-02-23T02:06:16.382Z,1002.1
2023-02-23T02:09:16.391Z,1002.1
2023-02-23T02:12:16.427Z,1002.11
2023-02-23T02:15:16.392Z,1002.09
2023-02-23T02:18:16.392Z,1002.07
2023-02-23T02:21:16.617Z,1002.06
2023-02-23T02:24:16.380Z,1002.06
2023-02-23T02:27:16.372Z,1002.03
2023-02-23T02:30:16.377Z,1002.03
2023-02-23T02:33:16.373Z,1002.03
2023-02-23T02:36:16.384Z,1002
2023-02-23T02:39:16.380Z,1002.01
2023-02-23T02:42:16.380Z,1001.99
2023-02-23T02:45:16.382Z,1001.94
2023-02-23T02:48:16.378Z,1001.92
2023-02-23T02:51:16.586Z,1001.93
2023-02-23T02:54:16.373Z,1001.89
2023-02-23T02:57:16.379Z,1001.88
2023-02-23T03:00:16.392Z,1001.85
2023-02-23T03:03:16.375Z,1001.84
2023-02-23T03:06:16.369Z,1001.84
2023-02-23T03:09:16.380Z,1001.82
2023-02-23T03:12:16.367Z,1001.81
2023-02-23T03:15:16.371Z,1001.8
2023-02-23T03:18:16.374Z,1001.8
2023-02-23T03:21:16.474Z,1001.77
2023-02-23T03:24:16.360Z,1001.81
2023-02-23T03:27:16.353Z,1001.82
2023-02-23T03:30:16.361Z,1001.85
2023-02-23T03:33:16.363Z,1001.87
2023-02-23T03:36:16.368Z,1001.86
2023-02-23T03:39:16.362Z,1001.89
2023-02-23T03:42:16.358Z,1001.88
2023-02-23T03:45:16.355Z,1001.95
2023-02-23T03:48:16.350Z,1001.95
2023-02-23T03:51:16.454Z,1001.94
2023-02-23T03:54:16.340Z,1001.93
2023-02-23T03:57:16.348Z,1001.98
2023-02-23T04:00:16.339Z,1001.93
2023-02-23T04:03:16.387Z,1001.95
2023-02-23T04:06:16.340Z,1001.92
2023-02-23T04:09:16.350Z,1001.94
2023-02-23T04:12:16.335Z,1001.96
2023-02-23T04:15:16.338Z,1001.97
2023-02-23T04:18:16.336Z,1001.97
2023-02-23T04:21:16.559Z,1001.95
2023-02-23T04:24:16.330Z,1002.01
2023-02-23T04:27:16.334Z,1002.01
2023-02-23T04:30:16.324Z,1002
2023-02-23T04:33:16.322Z,1002.01
2023-02-23T04:36:16.328Z,1002.01
2023-02-23T04:39:16.333Z,1002.05
2023-02-23T04:42:16.331Z,1002.11
2023-02-23T04:45:16.324Z,1002.06
2023-02-23T04:48:16.314Z,1002.08
2023-02-23T04:51:16.655Z,1002.1
2023-02-23T04:54:16.314Z,1002.05
2023-02-23T04:57:16.321Z,1002.02
2023-02-23T05:00:16.318Z,1002.04
2023-02-23T05:03:16.321Z,1002.06
2023-02-23T05:06:16.312Z,1002.05
2023-02-23T05:09:16.318Z,1002
2023-02-23T05:12:16.326Z,1001.99
2023-02-23T05:15:16.314Z,1002.02
2023-02-23T05:18:16.314Z,1002.05
2023-02-23T05:21:16.376Z,1002.05
2023-02-23T05:24:16.324Z,1002.06
2023-02-23T05:27:16.324Z,1002.13
2023-02-23T05:30:16.322Z,1002.09
2023-02-23T05:33:18.171Z,1002.11
2023-02-23T05:36:16.323Z,1002.1
2023-02-23T05:39:16.322Z,1002.09
2023-02-23T05:42:16.320Z,1002.09
2023-02-23T05:45:16.313Z,1002.08
2023-02-23T05:48:16.314Z,1002.07
2023-02-23T05:51:16.356Z,1002.09
2023-02-23T05:54:16.306Z,1002.11
2023-02-23T05:57:16.312Z,1002.14
2023-02-23T06:00:16.326Z,1002.12
2023-02-23T06:03:16.307Z,1002.14
2023-02-23T06:06:16.308Z,1002.15
2023-02-23T06:09:16.309Z,1002.14
2023-02-23T06:12:16.313Z,1002.15
2023-02-23T06:15:16.318Z,1002.15
2023-02-23T06:18:16.310Z,1002.18
2023-02-23T06:21:16.416Z,1002.21
2023-02-23T06:24:16.311Z,1002.18
2023-02-23T06:27:16.302Z,1002.22
2023-02-23T06:30:16.308Z,1002.22
2023-02-23T06:33:16.302Z,1002.21
2023-02-23T06:36:16.305Z,1002.26
2023-02-23T06:39:16.295Z,1002.28
2023-02-23T06:42:16.302Z,1002.3
2023-02-23T06:45:16.300Z,1002.3
2023-02-23T06:48:16.305Z,1002.34
2023-02-23T06:51:16.328Z,1002.36
2023-02-23T06:54:16.295Z,1002.37
2023-02-23T06:57:16.305Z,1002.41
2023-02-23T07:00:16.300Z,1002.45
2023-02-23T07:03:16.287Z,1002.5
2023-02-23T07:06:16.338Z,1002.52
2023-02-23T07:09:16.299Z,1002.56
2023-02-23T07:12:16.289Z,1002.56
2023-02-23T07:15:16.294Z,1002.57
2023-02-23T07:18:16.311Z,1002.58
2023-02-23T07:21:16.452Z,1002.6
2023-02-23T07:24:16.284Z,1002.59
2023-02-23T07:27:16.293Z,1002.68
2023-02-23T07:30:16.297Z,1002.68
2023-02-23T07:33:16.289Z,1002.67
2023-02-23T07:36:16.294Z,1002.65
2023-02-23T07:39:16.287Z,1002.64
2023-02-23T07:42:16.285Z,1002.68
2023-02-23T07:45:16.295Z,1002.69
2023-02-23T07:48:16.293Z,1002.7
2023-02-23T07:51:16.382Z,1002.74
2023-02-23T07:54:16.289Z,1002.73
2023-02-23T07:57:16.282Z,1002.78
2023-02-23T08:00:16.280Z,1002.77
2023-02-23T08:03:16.355Z,1002.76
2023-02-23T08:06:16.296Z,1002.81
2023-02-23T08:09:16.463Z,1002.83
2023-02-23T08:12:16.292Z,1002.81
2023-02-23T08:15:16.288Z,1002.87
2023-02-23T08:18:16.345Z,1002.83
2023-02-23T08:21:16.300Z,1002.84
2023-02-23T08:24:16.289Z,1002.82
2023-02-23T08:27:16.281Z,1002.86
2023-02-23T08:30:16.288Z,1002.87
2023-02-23T08:33:16.283Z,1002.92
2023-02-23T08:36:16.283Z,1002.91
2023-02-23T08:39:16.285Z,1002.93
2023-02-23T08:42:16.288Z,1002.95
2023-02-23T08:45:16.316Z,1003.02
2023-02-23T08:48:16.276Z,1002.99
2023-02-23T08:51:16.299Z,1002.98
2023-02-23T08:54:16.281Z,1002.99
2023-02-23T08:57:16.266Z,1002.96
2023-02-23T09:00:16.265Z,1002.94
2023-02-23T09:03:16.275Z,1002.98
2023-02-23T09:06:16.263Z,1003.02
2023-02-23T09:09:16.274Z,1003.02
2023-02-23T09:12:16.266Z,1003.03
2023-02-23T09:15:16.267Z,1003.06
2023-02-23T09:18:16.256Z,1003.07
2023-02-23T09:21:16.545Z,1003.05
2023-02-23T09:24:16.267Z,1003.1
2023-02-23T09:27:16.264Z,1003.05
2023-02-23T09:30:16.256Z,1003.11
2023-02-23T09:33:16.262Z,1003.1
2023-02-23T09:36:16.308Z,1003.11
2023-02-23T09:39:16.270Z,1003.17
2023-02-23T09:42:16.255Z,1003.22
2023-02-23T09:45:16.250Z,1003.23
2023-02-23T09:48:16.263Z,1003.25
2023-02-23T09:51:16.312Z,1003.26
2023-02-23T09:54:16.252Z,1003.22
2023-02-23T09:57:16.250Z,1003.2
2023-02-23T10:00:16.246Z,1003.2
2023-02-23T10:03:16.275Z,1003.19
2023-02-23T10:06:16.251Z,1003.24
2023-02-23T10:09:16.263Z,1003.24
2023-02-23T10:12:16.256Z,1003.26
2023-02-23T10:15:16.297Z,1003.23
2023-02-23T10:18:16.251Z,1003.22
2023-02-23T10:21:16.767Z,1003.23
2023-02-23T10:24:16.249Z,1003.25
2023-02-23T10:27:16.268Z,1003.32
2023-02-23T10:30:16.240Z,1003.33
2023-02-23T10:33:16.340Z,1003.34
2023-02-23T10:36:16.262Z,1003.33
2023-02-23T10:39:16.241Z,1003.31
2023-02-23T10:42:16.235Z,1003.31
2023-02-23T10:45:16.242Z,1003.32
2023-02-23T10:48:16.244Z,1003.38
2023-02-23T10:51:16.238Z,1003.35
2023-02-23T10:54:16.242Z,1003.41
2023-02-23T10:57:16.254Z,1003.42
2023-02-23T11:00:16.227Z,1003.4
2023-02-23T11:03:16.621Z,1003.37
2023-02-23T11:06:16.408Z,1003.34
2023-02-23T11:09:16.236Z,1003.3
2023-02-23T11:12:16.259Z,1003.27
2023-02-23T11:15:16.232Z,1003.29
2023-02-23T11:18:16.295Z,1003.28
2023-02-23T11:21:16.232Z,1003.3
2023-02-23T11:24:16.233Z,1003.28
2023-02-23T11:27:16.236Z,1003.33
2023-02-23T11:30:16.230Z,1003.28
2023-02-23T11:33:16.230Z,1003.25
2023-02-23T11:36:16.232Z,1003.23
2023-02-23T11:39:16.229Z,1003.21
2023-02-23T11:42:16.239Z,1003.18
2023-02-23T11:45:16.227Z,1003.13
2023-02-23T11:48:16.236Z,1003.12
2023-02-23T11:51:16.227Z,1003.09
2023-02-23T11:54:16.221Z,1003.09
2023-02-23T11:57:16.272Z,1003.14
2023-02-23T12:00:16.255Z,1003.11
2023-02-23T12:03:16.243Z,1003.09
2023-02-23T12:06:16.252Z,1003.04
2023-02-23T12:09:16.224Z,1002.96
2023-02-23T12:12:16.224Z,1002.95
2023-02-23T12:15:16.232Z,1002.88
2023-02-23T12:18:16.231Z,1002.85
2023-02-23T12:21:16.221Z,1002.82
2023-02-23T12:24:16.212Z,1002.8
2023-02-23T12:27:16.214Z,1002.8
2023-02-23T12:30:16.227Z,1002.8
2023-02-23T12:33:16.218Z,1002.82
2023-02-23T12:36:16.378Z,1002.83
2023-02-23T12:39:16.217Z,1002.84
2023-02-23T12:42:16.222Z,1002.82
2023-02-23T12:45:16.212Z,1002.84
2023-02-23T12:48:16.213Z,1002.78
2023-02-23T12:51:17.785Z,1002.82
2023-02-23T12:54:16.212Z,1002.79
2023-02-23T12:57:16.209Z,1002.8
2023-02-23T13:00:16.207Z,1002.79
2023-02-23T13:03:16.203Z,1002.79
2023-02-23T13:06:16.204Z,1002.77
2023-02-23T13:09:16.201Z,1002.74
2023-02-23T13:12:16.220Z,1002.76
2023-02-23T13:15:16.208Z,1002.73
2023-02-23T13:18:16.203Z,1002.74
2023-02-23T13:21:16.202Z,1002.72
2023-02-23T13:24:16.233Z,1002.77
2023-02-23T13:27:16.207Z,1002.77
2023-02-23T13:30:16.205Z,1002.81
2023-02-23T13:33:16.201Z,1002.74
2023-02-23T13:36:16.206Z,1002.76
2023-02-23T13:39:18.916Z,1002.77
2023-02-23T13:42:16.198Z,1002.72
2023-02-23T13:45:16.201Z,1002.72
2023-02-23T13:48:16.201Z,1002.69
2023-02-23T13:51:16.195Z,1002.64
2023-02-23T13:54:16.217Z,1002.65
2023-02-23T13:57:16.198Z,1002.66
2023-02-23T14:00:16.188Z,1002.68
2023-02-23T14:03:16.196Z,1002.67
2023-02-23T14:06:16.186Z,1002.73
2023-02-23T14:09:16.191Z,1002.72
2023-02-23T14:12:16.184Z,1002.73
2023-02-23T14:15:16.215Z,1002.69
2023-02-23T14:18:16.186Z,1002.69
2023-02-23T14:21:16.184Z,1002.69
2023-02-23T14:24:16.185Z,1002.68
2023-02-23T14:27:18.345Z,1002.67
2023-02-23T14:30:16.264Z,1002.64
2023-02-23T14:33:21.483Z,1002.67
2023-02-23T14:36:16.176Z,1002.64
2023-02-23T14:39:16.187Z,1002.57
2023-02-23T14:42:16.180Z,1002.59
2023-02-23T14:45:16.171Z,1002.63
2023-02-23T14:48:16.172Z,1002.63
2023-02-23T14:51:16.810Z,1002.66
2023-02-23T14:54:16.167Z,1002.7
2023-02-23T14:57:16.211Z,1002.74
2023-02-23T15:00:16.190Z,1002.7
2023-02-23T15:03:16.164Z,1002.71
2023-02-23T15:06:16.225Z,1002.72
2023-02-23T15:09:16.178Z,1002.7
2023-02-23T15:12:16.167Z,1002.75
2023-02-23T15:15:16.158Z,1002.72
2023-02-23T15:18:16.154Z,1002.73
2023-02-23T15:21:16.148Z,1002.76
2023-02-23T15:24:16.171Z,1002.78
2023-02-23T15:27:16.152Z,1002.82
2023-02-23T15:30:16.149Z,1002.8
2023-02-23T15:33:16.173Z,1002.86
2023-02-23T15:36:16.175Z,1002.86
2023-02-23T15:39:16.156Z,1002.89
2023-02-23T15:42:16.146Z,1002.88
2023-02-23T15:45:16.149Z,1002.85
2023-02-23T15:48:16.144Z,1002.83
2023-02-23T15:51:16.150Z,1002.83
2023-02-23T15:54:16.154Z,1002.85
2023-02-23T15:57:16.154Z,1002.86
2023-02-23T16:00:16.146Z,1002.89
2023-02-23T16:03:16.145Z,1002.88
2023-02-23T16:06:16.149Z,1002.86
2023-02-23T16:09:16.147Z,1002.85
2023-02-23T16:12:16.141Z,1002.85
2023-02-23T16:15:16.147Z,1002.87
2023-02-23T16:18:16.153Z,1002.9
2023-02-23T16:21:16.149Z,1002.9
2023-02-23T16:24:16.146Z,1002.87
2023-02-23T16:27:16.151Z,1002.86
2023-02-23T16:30:16.167Z,1002.91
2023-02-23T16:33:16.143Z,1002.89
2023-02-23T16:36:16.147Z,1002.86
2023-02-23T16:39:16.142Z,1002.92
2023-02-23T16:42:16.140Z,1002.96
2023-02-23T16:45:16.143Z,1003
2023-02-23T16:48:16.141Z,1003.02
2023-02-23T16:51:16.152Z,1003.04
2023-02-23T16:54:16.133Z,1003.02
2023-02-23T16:57:16.134Z,1003.04
2023-02-23T17:00:16.145Z,1003.04
2023-02-23T17:03:16.140Z,1003.04
2023-02-23T17:06:16.129Z,1003.01
2023-02-23T17:09:16.135Z,1003.02
2023-02-23T17:12:16.130Z,1003.03
2023-02-23T17:15:16.126Z,1003.03
2023-02-23T17:18:16.136Z,1003.1
2023-02-23T17:21:16.136Z,1003.13
2023-02-23T17:24:16.138Z,1003.09
2023-02-23T17:27:16.136Z,1003.11
2023-02-23T17:30:16.121Z,1003.13
2023-02-23T17:33:16.207Z,1003.1
2023-02-23T17:36:16.130Z,1003.13
2023-02-23T17:39:16.119Z,1003.16
2023-02-23T17:42:16.110Z,1003.16
2023-02-23T17:45:16.111Z,1003.17
2023-02-23T17:48:16.114Z,1003.17
2023-02-23T17:51:16.109Z,1003.19
2023-02-23T17:54:16.112Z,1003.21
2023-02-23T17:57:16.121Z,1003.22
2023-02-23T18:00:16.138Z,1003.26
2023-02-23T18:03:16.166Z,1003.22
2023-02-23T18:06:16.103Z,1003.18
2023-02-23T18:09:16.105Z,1003.25
2023-02-23T18:12:16.110Z,1003.25
2023-02-23T18:15:16.106Z,1003.27
2023-02-23T18:18:16.125Z,1003.24
2023-02-23T18:21:16.093Z,1003.25
2023-02-23T18:24:16.098Z,1003.18
2023-02-23T18:27:16.101Z,1003.16
2023-02-23T18:30:16.095Z,1003.09
2023-02-23T18:33:16.195Z,1003.15
2023-02-23T18:36:16.097Z,1003.18
2023-02-23T18:39:16.097Z,1003.14
2023-02-23T18:42:16.093Z,1003.1
2023-02-23T18:45:16.086Z,1003.06
2023-02-23T18:48:16.095Z,1003.02
2023-02-23T18:51:16.094Z,1003.02
2023-02-23T18:54:16.102Z,1003.02
2023-02-23T18:57:16.092Z,1003.05
2023-02-23T19:00:16.097Z,1003.08
2023-02-23T19:03:16.085Z,1003.05
2023-02-23T19:06:16.119Z,1003.02
2023-02-23T19:09:16.103Z,1002.99
2023-02-23T19:12:16.084Z,1003.01
2023-02-23T19:15:16.120Z,1002.99
2023-02-23T19:18:16.072Z,1002.94
2023-02-23T19:21:16.095Z,1002.96
2023-02-23T19:24:16.083Z,1002.98
2023-02-23T19:27:16.081Z,1002.99
2023-02-23T19:30:16.070Z,1002.97
2023-02-23T19:33:16.219Z,1003
2023-02-23T19:36:16.061Z,1003
2023-02-23T19:39:16.075Z,1003.05
2023-02-23T19:42:16.068Z,1003.04
2023-02-23T19:45:16.076Z,1003
2023-02-23T19:48:16.084Z,1003
2023-02-23T19:51:16.076Z,1002.98
2023-02-23T19:54:16.126Z,1002.97
2023-02-23T19:57:16.090Z,1003.04
2023-02-23T20:00:16.084Z,1003.07
2023-02-23T20:03:16.063Z,1003.12
2023-02-23T20:06:16.092Z,1003.1
2023-02-23T20:09:16.067Z,1003.14
2023-02-23T20:12:16.054Z,1003.14
2023-02-23T20:15:16.064Z,1003.19
2023-02-23T20:18:16.068Z,1003.24
2023-02-23T20:21:16.114Z,1003.22
2023-02-23T20:24:16.054Z,1003.27
2023-02-23T20:27:16.058Z,1003.29
2023-02-23T20:30:16.049Z,1003.3
2023-02-23T20:33:16.045Z,1003.32
2023-02-23T20:36:16.045Z,1003.32
2023-02-23T20:39:16.053Z,1003.32
2023-02-23T20:42:16.050Z,1003.32
2023-02-23T20:45:16.036Z,1003.32
2023-02-23T20:48:16.048Z,1003.31
2023-02-23T20:51:16.051Z,1003.35
2023-02-23T20:54:16.061Z,1003.29
2023-02-23T20:57:16.051Z,1003.28
2023-02-23T21:00:16.238Z,1003.29
2023-02-23T21:03:16.057Z,1003.26
2023-02-23T21:06:16.046Z,1003.28
2023-02-23T21:09:16.058Z,1003.29
2023-02-23T21:12:16.055Z,1003.29
2023-02-23T21:15:16.053Z,1003.3
2023-02-23T21:18:16.058Z,1003.3
2023-02-23T21:21:16.059Z,1003.25
2023-02-23T21:24:16.058Z,1003.28
2023-02-23T21:27:16.052Z,1003.26
2023-02-23T21:30:16.083Z,1003.28
2023-02-23T21:33:16.066Z,1003.29
2023-02-23T21:36:16.054Z,1003.28
2023-02-23T21:39:16.047Z,1003.26
2023-02-23T21:42:16.057Z,1003.23
2023-02-23T21:45:16.054Z,1003.23
2023-02-23T21:48:16.050Z,1003.24
2023-02-23T21:51:16.058Z,1003.24
2023-02-23T21:54:16.059Z,1003.23
2023-02-23T21:57:16.051Z,1003.22
2023-02-23T22:00:16.052Z,1003.18
2023-02-23T22:03:16.094Z,1003.17
2023-02-23T22:06:16.045Z,1003.17
2023-02-23T22:09:16.139Z,1003.15
2023-02-23T22:12:16.046Z,1003.15
2023-02-23T22:15:16.043Z,1003.1
2023-02-23T22:18:16.043Z,1003.08
2023-02-23T22:21:16.041Z,1003.09
2023-02-23T22:24:16.040Z,1003.1
2023-02-23T22:27:16.038Z,1003.17
2023-02-23T22:30:16.088Z,1003.19
2023-02-23T22:33:16.178Z,1003.22
2023-02-23T22:36:16.032Z,1003.2
2023-02-23T22:39:16.030Z,1003.2
2023-02-23T22:42:16.039Z,1003.21
2023-02-23T22:45:16.043Z,1003.19
2023-02-23T22:48:16.031Z,1003.16
2023-02-23T22:51:16.090Z,1003.17
2023-02-23T22:54:16.021Z,1003.18
2023-02-23T22:57:16.033Z,1003.19
2023-02-23T23:00:16.041Z,1003.14
2023-02-23T23:03:16.048Z,1003.13
2023-02-23T23:06:16.021Z,1003.11
2023-02-23T23:09:16.016Z,1003.06
2023-02-23T23:12:16.011Z,1003.03
2023-02-23T23:15:16.012Z,1003.05
2023-02-23T23:18:16.007Z,1003.04
2023-02-23T23:21:16.016Z,1002.99
2023-02-23T23:24:16.056Z,1002.95
2023-02-23T23:27:16.017Z,1002.93
2023-02-23T23:30:16.029Z,1002.94
2023-02-23T23:33:16.012Z,1002.92
2023-02-23T23:36:16.004Z,1002.9
2023-02-23T23:39:16.284Z,1002.9
2023-02-23T23:42:16.013Z,1002.85
2023-02-23T23:45:16.015Z,1002.82
2023-02-23T23:48:16.013Z,1002.78
2023-02-23T23:51:16.018Z,1002.81
2023-02-23T23:54:16.005Z,1002.77
2023-02-23T23:57:16.001Z,1002.76
